Time;durP1;ratioP1;P1;durP2;ratioP2;P2;SDS_P1;SDS_P2;PMS_P1;PMS_P2;Temp;Humidity;BMP_temperature;BMP_pressure;BME280_temperature;BME280_humidity;BME280_pressure;Samples;Min_cycle;Max_cycle;Signal;HPM_P1;HPM_P2
2023/03/23 00:00:59;;;;;;;2.70;2.50;;;;;;;;;;6077686;23;20438;-78
2023/03/23 00:03:31;;;;;;;2.50;2.30;;;;;;;;;;6073669;23;20474;-78
2023/03/23 00:06:04;;;;;;;2.47;2.27;;;;;;;;;;6073088;23;20435;-79
2023/03/23 00:08:50;;;;;;;2.50;2.30;;;;;;;;;;6073537;23;20418;-77
2023/03/23 00:11:20;;;;;;;2.40;2.30;;;;;;;;;;6074322;23;20497;-77
2023/03/23 00:16:45;;;;;;;2.30;2.10;;;;;;;;;;6070357;23;20394;-77
2023/03/23 00:19:21;;;;;;;2.00;1.90;;;;;;;;;;6073724;23;20454;-77
2023/03/23 00:22:04;;;;;;;2.43;2.23;;;;;;;;;;6069761;23;20438;-77
2023/03/23 00:24:41;;;;;;;2.40;2.20;;;;;;;;;;6068202;23;20435;-77
2023/03/23 00:27:21;;;;;;;2.37;2.17;;;;;;;;;;6067372;23;20936;-77
2023/03/23 00:30:17;;;;;;;2.37;2.17;;;;;;;;;;6066846;23;20490;-77
2023/03/23 00:32:53;;;;;;;1.97;1.70;;;;;;;;;;6066733;23;20438;-77
2023/03/23 00:35:44;;;;;;;2.50;2.30;;;;;;;;;;6066275;23;20442;-77
2023/03/23 00:38:23;;;;;;;3.90;1.80;;;;;;;;;;6066494;23;20474;-76
2023/03/23 00:40:57;;;;;;;1.80;1.70;;;;;;;;;;6066290;23;20968;-77
2023/03/23 00:43:28;;;;;;;2.63;1.93;;;;;;;;;;6068343;23;21007;-76
2023/03/23 00:46:09;;;;;;;2.40;1.90;;;;;;;;;;6067381;23;20941;-77
2023/03/23 00:48:46;;;;;;;2.10;2.00;;;;;;;;;;6067179;23;20736;-77
2023/03/23 00:51:17;;;;;;;2.37;2.17;;;;;;;;;;6067106;23;21085;-76
2023/03/23 00:53:51;;;;;;;2.20;2.10;;;;;;;;;;6067442;23;20430;-78
2023/03/23 00:56:43;;;;;;;2.23;2.03;;;;;;;;;;6067492;23;20763;-77
2023/03/23 00:59:12;;;;;;;2.10;2.00;;;;;;;;;;6066860;23;20425;-78
2023/03/23 01:01:50;;;;;;;2.07;1.87;;;;;;;;;;6067220;23;20546;-76
2023/03/23 01:04:24;;;;;;;1.90;1.80;;;;;;;;;;6066294;23;20933;-77
2023/03/23 01:07:08;;;;;;;2.13;2.03;;;;;;;;;;6066146;23;20425;-78
2023/03/23 01:09:44;;;;;;;2.17;1.90;;;;;;;;;;6066070;23;20912;-78
2023/03/23 01:12:16;;;;;;;2.20;2.00;;;;;;;;;;6066213;23;20395;-77
2023/03/23 01:14:47;;;;;;;2.40;2.20;;;;;;;;;;6065420;23;20457;-77
2023/03/23 01:17:34;;;;;;;2.27;1.80;;;;;;;;;;6066415;23;20479;-77
2023/03/23 01:20:19;;;;;;;2.13;2.03;;;;;;;;;;6066872;23;20506;-76
2023/03/23 01:22:59;;;;;;;1.90;1.80;;;;;;;;;;6067576;23;20569;-77
2023/03/23 01:25:44;;;;;;;2.30;2.13;;;;;;;;;;6067422;23;20466;-77
2023/03/23 01:28:36;;;;;;;2.77;1.77;;;;;;;;;;6068271;23;20415;-78
2023/03/23 01:31:29;;;;;;;2.60;2.20;;;;;;;;;;6068088;23;20415;-77
2023/03/23 01:34:11;;;;;;;2.53;2.13;;;;;;;;;;6068938;23;20418;-78
2023/03/23 01:36:53;;;;;;;2.03;1.93;;;;;;;;;;6068846;23;20505;-77
2023/03/23 01:39:36;;;;;;;2.50;2.40;;;;;;;;;;6068431;23;20901;-77
2023/03/23 01:42:25;;;;;;;;;;;;;;;;;;;;;
2023/03/23 01:45:15;;;;;;;2.50;2.10;;;;;;;;;;6069299;23;20418;-78
2023/03/23 01:50:50;;;;;;;2.27;2.17;;;;;;;;;;6067727;23;20399;-77
2023/03/23 01:53:32;;;;;;;2.13;1.90;;;;;;;;;;6071014;23;20426;-79
2023/03/23 01:56:24;;;;;;;2.10;2.00;;;;;;;;;;6052513;23;20431;-77
2023/03/23 01:59:03;;;;;;;2.23;1.90;;;;;;;;;;6074326;23;20407;-77
2023/03/23 02:01:45;;;;;;;2.73;2.53;;;;;;;;;;6075963;23;20452;-76
2023/03/23 02:04:22;;;;;;;3.13;1.90;;;;;;;;;;6075578;23;20439;-77
2023/03/23 02:07:17;;;;;;;2.33;2.23;;;;;;;;;;6075438;23;20509;-78
2023/03/23 02:10:04;;;;;;;2.40;2.20;;;;;;;;;;6074176;23;20517;-78
2023/03/23 02:12:41;;;;;;;2.10;2.00;;;;;;;;;;6074362;23;20901;-76
2023/03/23 02:15:16;;;;;;;2.60;2.40;;;;;;;;;;6075336;23;20434;-77
2023/03/23 02:17:56;;;;;;;2.50;2.30;;;;;;;;;;6076750;23;20414;-78
2023/03/23 02:20:53;;;;;;;2.80;2.50;;;;;;;;;;6077299;23;20961;-77
2023/03/23 02:23:52;;;;;;;2.10;2.00;;;;;;;;;;6075332;23;20462;-77
2023/03/23 02:26:41;;;;;;;2.40;2.30;;;;;;;;;;6074953;23;21003;-77
2023/03/23 02:29:32;;;;;;;2.43;2.17;;;;;;;;;;6073111;23;20414;-78
2023/03/23 02:32:18;;;;;;;2.23;2.03;;;;;;;;;;6074086;23;20721;-77
2023/03/23 02:34:53;;;;;;;2.13;1.93;;;;;;;;;;6072926;23;20442;-77
2023/03/23 02:37:32;;;;;;;4.17;2.43;;;;;;;;;;6071590;23;20405;-78
2023/03/23 02:40:13;;;;;;;2.33;2.23;;;;;;;;;;6071180;23;20483;-77
2023/03/23 02:48:31;;;;;;;2.60;2.40;;;;;;;;;;6030933;23;20395;-77
2023/03/23 02:54:21;;;;;;;;;;;;;;;;;;;;;
2023/03/23 02:56:51;;;;;;;3.07;2.87;;;;;;;;;;6068150;23;20407;-78
2023/03/23 02:59:28;;;;;;;2.53;2.33;;;;;;;;;;6069157;23;20418;-76
2023/03/23 03:02:08;;;;;;;2.47;2.33;;;;;;;;;;6067739;23;20528;-76
2023/03/23 03:04:44;;;;;;;2.70;2.40;;;;;;;;;;6067279;23;20438;-78
2023/03/23 03:07:38;;;;;;;2.43;2.23;;;;;;;;;;6067874;23;20418;-77
2023/03/23 03:10:23;;;;;;;2.43;2.33;;;;;;;;;;6070667;23;20414;-77
2023/03/23 03:13:07;;;;;;;2.37;2.27;;;;;;;;;;6070679;23;20410;-77
2023/03/23 03:15:38;;;;;;;2.40;2.20;;;;;;;;;;6068806;23;20431;-77
2023/03/23 03:18:17;;;;;;;2.70;2.50;;;;;;;;;;6069490;23;20418;-78
2023/03/23 03:20:49;;;;;;;2.53;2.33;;;;;;;;;;6071522;23;20500;-77
2023/03/23 03:23:25;;;;;;;2.87;2.07;;;;;;;;;;6071387;23;20526;-78
2023/03/23 03:26:10;;;;;;;2.20;2.10;;;;;;;;;;6072248;23;20434;-77
2023/03/23 03:28:38;;;;;;;2.10;2.00;;;;;;;;;;6060815;23;20439;-77
2023/03/23 03:34:12;;;;;;;2.33;2.20;;;;;;;;;;6068059;23;20399;-77
2023/03/23 03:39:41;;;;;;;2.10;2.00;;;;;;;;;;6037539;23;20462;-76
2023/03/23 03:42:16;;;;;;;2.47;2.27;;;;;;;;;;6071821;23;20495;-77
2023/03/23 03:44:56;;;;;;;2.53;2.33;;;;;;;;;;6070794;23;20438;-77
2023/03/23 03:47:29;;;;;;;2.60;2.40;;;;;;;;;;6075845;23;20434;-78
2023/03/23 03:52:47;;;;;;;2.80;2.60;;;;;;;;;;6069539;23;20394;-77
2023/03/23 03:55:20;;;;;;;3.93;2.20;;;;;;;;;;6070873;23;20517;-76
2023/03/23 03:57:59;;;;;;;2.00;1.80;;;;;;;;;;6072002;23;20414;-77
2023/03/23 04:00:33;;;;;;;2.30;2.17;;;;;;;;;;6071985;23;20410;-79
2023/03/23 04:03:03;;;;;;;2.27;2.13;;;;;;;;;;6075343;23;20446;-78
2023/03/23 04:05:37;;;;;;;2.27;2.07;;;;;;;;;;6080320;23;20431;-77
2023/03/23 04:08:05;;;;;;;2.40;2.20;;;;;;;;;;6071272;23;20787;-77
2023/03/23 04:10:53;;;;;;;2.30;2.00;;;;;;;;;;6068682;23;20430;-78
2023/03/23 04:19:03;;;;;;;2.40;2.20;;;;;;;;;;6052251;23;20395;-77
2023/03/23 04:21:36;;;;;;;2.43;2.10;;;;;;;;;;6069486;23;20422;-78
2023/03/23 04:24:14;;;;;;;1.90;1.80;;;;;;;;;;6068777;23;20508;-77
2023/03/23 04:26:51;;;;;;;2.20;2.10;;;;;;;;;;6068793;23;20419;-77
2023/03/23 04:32:21;;;;;;;2.97;2.23;;;;;;;;;;6065638;23;20976;-76
2023/03/23 04:34:50;;;;;;;2.30;2.20;;;;;;;;;;6071840;23;20435;-77
2023/03/23 04:37:50;;;;;;;2.03;1.93;;;;;;;;;;6070877;23;20723;-77
2023/03/23 04:40:24;;;;;;;2.27;2.10;;;;;;;;;;6068917;23;20498;-77
2023/03/23 04:42:58;;;;;;;2.10;2.00;;;;;;;;;;6068091;23;20858;-78
2023/03/23 04:45:37;;;;;;;2.27;2.07;;;;;;;;;;6042833;23;20437;-78
2023/03/23 04:48:18;;;;;;;2.80;2.20;;;;;;;;;;6069356;23;20395;-78
2023/03/23 04:54:07;;;;;;;2.93;2.57;;;;;;;;;;6067210;23;20932;-76
2023/03/23 04:56:48;;;;;;;2.87;2.37;;;;;;;;;;6068427;23;20419;-77
2023/03/23 04:59:32;;;;;;;2.23;1.90;;;;;;;;;;6069517;23;20398;-78
2023/03/23 05:02:08;;;;;;;2.47;2.00;;;;;;;;;;6068898;23;20972;-79
2023/03/23 05:05:00;;;;;;;2.90;2.50;;;;;;;;;;6067655;23;20454;-77
2023/03/23 05:07:35;;;;;;;2.77;2.57;;;;;;;;;;6059838;23;20419;-77
2023/03/23 05:13:12;;;;;;;;;;;;;;;;;;;;;
2023/03/23 05:16:00;;;;;;;2.50;2.00;;;;;;;;;;6069692;23;20425;-76
2023/03/23 05:18:46;;;;;;;2.73;1.90;;;;;;;;;;6010303;23;20416;-79
2023/03/23 05:21:29;;;;;;;2.00;1.90;;;;;;;;;;6068356;23;20395;-77
2023/03/23 05:26:55;;;;;;;2.30;2.00;;;;;;;;;;6037984;23;20399;-76
2023/03/23 05:29:40;;;;;;;2.23;2.03;;;;;;;;;;6068090;23;20506;-77
2023/03/23 05:35:30;;;;;;;1.83;1.73;;;;;;;;;;6065639;23;20454;-77
2023/03/23 05:38:19;;;;;;;2.60;2.40;;;;;;;;;;6068576;23;20913;-78
2023/03/23 05:41:04;;;;;;;2.40;2.20;;;;;;;;;;6068610;23;20454;-78
2023/03/23 05:43:39;;;;;;;2.80;2.40;;;;;;;;;;6068441;23;20980;-77
2023/03/23 05:46:10;;;;;;;3.47;2.00;;;;;;;;;;6068265;23;20423;-77
2023/03/23 05:48:46;;;;;;;1.93;1.83;;;;;;;;;;6067503;23;20442;-76
2023/03/23 05:51:18;;;;;;;3.40;1.77;;;;;;;;;;6068490;23;20409;-77
2023/03/23 05:54:10;;;;;;;2.63;2.10;;;;;;;;;;6067979;23;20502;-77
2023/03/23 05:57:05;;;;;;;2.10;1.83;;;;;;;;;;6068590;23;20525;-77
2023/03/23 05:59:39;;;;;;;2.07;1.97;;;;;;;;;;6068451;23;21286;-77
2023/03/23 06:02:13;;;;;;;2.40;2.17;;;;;;;;;;6067265;23;20447;-77
2023/03/23 06:04:48;;;;;;;4.50;2.10;;;;;;;;;;6067365;23;20518;-77
2023/03/23 06:07:19;;;;;;;2.30;2.20;;;;;;;;;;6069179;23;20497;-77
2023/03/23 06:09:49;;;;;;;2.20;2.00;;;;;;;;;;6067893;23;20483;-78
2023/03/23 06:12:21;;;;;;;3.77;3.47;;;;;;;;;;6068826;23;20411;-76
2023/03/23 06:14:58;;;;;;;3.47;2.27;;;;;;;;;;6068460;23;20430;-77
2023/03/23 06:17:29;;;;;;;2.80;2.27;;;;;;;;;;6070692;23;20437;-77
2023/03/23 06:20:14;;;;;;;5.57;2.10;;;;;;;;;;6070451;23;20434;-77
2023/03/23 06:23:11;;;;;;;3.47;2.30;;;;;;;;;;6070555;23;20438;-77
2023/03/23 06:25:46;;;;;;;2.97;2.30;;;;;;;;;;6068361;23;20441;-77
2023/03/23 06:28:24;;;;;;;11.20;7.60;;;;;;;;;;6068985;23;20430;-78
2023/03/23 06:31:24;;;;;;;25.07;18.23;;;;;;;;;;6069830;23;20414;-77
2023/03/23 06:34:09;;;;;;;3.60;3.20;;;;;;;;;;6070234;23;20426;-76
2023/03/23 06:36:56;;;;;;;2.63;2.43;;;;;;;;;;6044875;23;20417;-79
2023/03/23 06:39:30;;;;;;;2.10;1.90;;;;;;;;;;6068667;23;20418;-77
2023/03/23 06:42:13;;;;;;;2.60;2.40;;;;;;;;;;6068964;23;20440;-77
2023/03/23 06:45:02;;;;;;;2.37;2.27;;;;;;;;;;6068642;23;20564;-76
2023/03/23 06:47:51;;;;;;;2.77;2.47;;;;;;;;;;6071655;23;20425;-78
2023/03/23 06:50:28;;;;;;;2.30;2.03;;;;;;;;;;6070185;23;20417;-77
2023/03/23 06:53:06;;;;;;;2.63;2.43;;;;;;;;;;6068701;23;20418;-75
2023/03/23 06:55:34;;;;;;;4.60;3.10;;;;;;;;;;6074437;23;20435;-75
2023/03/23 06:58:16;;;;;;;2.83;2.63;;;;;;;;;;6077720;23;20424;-77
2023/03/23 07:12:16;;;;;;;2.60;2.40;;;;;;;;;;5959895;24;20495;-77
2023/03/23 07:14:51;;;;;;;3.27;3.07;;;;;;;;;;6083453;23;20417;-76
2023/03/23 07:17:27;;;;;;;4.97;2.50;;;;;;;;;;6103319;23;20416;-77
2023/03/23 07:19:57;;;;;;;3.70;2.67;;;;;;;;;;6103012;23;20928;-77
2023/03/23 07:22:28;;;;;;;2.20;2.10;;;;;;;;;;6101999;23;20429;-78
2023/03/23 07:24:56;;;;;;;2.77;2.30;;;;;;;;;;6102399;23;20437;-77
2023/03/23 07:27:37;;;;;;;2.40;2.20;;;;;;;;;;6103047;23;20829;-77
2023/03/23 07:30:16;;;;;;;2.83;2.63;;;;;;;;;;6097423;23;20511;-78
2023/03/23 07:32:51;;;;;;;2.40;2.30;;;;;;;;;;6097366;23;20524;-76
2023/03/23 07:35:26;;;;;;;2.73;2.47;;;;;;;;;;6097887;23;20472;-78
2023/03/23 07:38:00;;;;;;;3.30;2.30;;;;;;;;;;6098429;23;20417;-76
2023/03/23 07:40:41;;;;;;;2.00;1.90;;;;;;;;;;6096704;23;20421;-79
2023/03/23 07:45:59;;;;;;;2.30;2.10;;;;;;;;;;6091448;23;20655;-77
2023/03/23 07:48:30;;;;;;;2.30;2.10;;;;;;;;;;6098238;23;20437;-78
2023/03/23 07:51:21;;;;;;;3.20;2.43;;;;;;;;;;6098895;23;20414;-78
2023/03/23 07:53:54;;;;;;;2.77;2.10;;;;;;;;;;6104154;23;20429;-77
2023/03/23 07:56:39;;;;;;;2.40;2.20;;;;;;;;;;6107241;23;20397;-78
2023/03/23 07:59:12;;;;;;;2.20;2.10;;;;;;;;;;6105949;23;20410;-77
2023/03/23 08:01:44;;;;;;;3.27;2.97;;;;;;;;;;6104277;23;20428;-77
2023/03/23 08:04:16;;;;;;;2.90;2.70;;;;;;;;;;6105382;23;20456;-76
2023/03/23 08:06:45;;;;;;;2.07;1.97;;;;;;;;;;6106818;23;20418;-77
2023/03/23 08:12:55;;;;;;;4.47;2.30;;;;;;;;;;5926145;23;20444;-76
2023/03/23 08:18:19;;;;;;;2.60;2.40;;;;;;;;;;6093272;23;20410;-77
2023/03/23 08:20:53;;;;;;;3.87;2.20;;;;;;;;;;6101232;23;20421;-77
2023/03/23 08:23:35;;;;;;;;;;;;;;;;;;;;;
2023/03/23 08:26:11;;;;;;;2.20;2.10;;;;;;;;;;6100775;23;20939;-80
2023/03/23 08:28:44;;;;;;;2.30;2.20;;;;;;;;;;6101834;23;20435;-77
2023/03/23 08:31:20;;;;;;;7.70;2.37;;;;;;;;;;6101489;23;20422;-76
2023/03/23 08:33:58;;;;;;;2.60;2.17;;;;;;;;;;6099624;23;20445;-77
2023/03/23 08:36:37;;;;;;;2.67;2.03;;;;;;;;;;6100775;23;20813;-79
2023/03/23 08:39:07;;;;;;;2.70;2.50;;;;;;;;;;6099334;23;20880;-77
2023/03/23 08:41:40;;;;;;;2.83;2.63;;;;;;;;;;6097979;23;20458;-77
2023/03/23 08:44:12;;;;;;;2.27;2.10;;;;;;;;;;6097728;23;20818;-78
2023/03/23 08:46:43;;;;;;;2.80;2.53;;;;;;;;;;6097739;23;20418;-77
2023/03/23 08:49:29;;;;;;;3.40;2.57;;;;;;;;;;6097966;23;20413;-77
2023/03/23 08:52:00;;;;;;;2.30;2.10;;;;;;;;;;6099503;23;20509;-77
2023/03/23 08:54:38;;;;;;;2.67;2.37;;;;;;;;;;6099710;23;20965;-79
2023/03/23 08:57:09;;;;;;;5.70;2.30;;;;;;;;;;6098459;23;20424;-76
2023/03/23 08:59:46;;;;;;;3.17;2.30;;;;;;;;;;6099809;23;20426;-79
2023/03/23 09:02:14;;;;;;;6.43;2.47;;;;;;;;;;6098461;23;20428;-77
2023/03/23 09:04:44;;;;;;;2.60;2.40;;;;;;;;;;6097966;23;20477;-78
2023/03/23 09:07:14;;;;;;;4.53;2.33;;;;;;;;;;6099231;23;20797;-78
2023/03/23 09:09:48;;;;;;;2.30;2.10;;;;;;;;;;6100614;23;20426;-77
2023/03/23 09:12:23;;;;;;;3.83;2.10;;;;;;;;;;6101039;23;20409;-79
2023/03/23 09:14:55;;;;;;;2.53;2.33;;;;;;;;;;6100330;23;20463;-77
2023/03/23 09:17:27;;;;;;;2.70;2.00;;;;;;;;;;6101403;23;20394;-76
2023/03/23 09:20:11;;;;;;;4.17;3.50;;;;;;;;;;6097988;23;20424;-77
2023/03/23 09:22:42;;;;;;;2.23;2.00;;;;;;;;;;6101106;23;20418;-77
2023/03/23 09:25:25;;;;;;;3.23;2.70;;;;;;;;;;6104578;23;20505;-77
2023/03/23 09:28:00;;;;;;;2.53;2.43;;;;;;;;;;6102534;23;20437;-76
2023/03/23 09:30:32;;;;;;;2.77;2.57;;;;;;;;;;6096796;23;20417;-78
2023/03/23 09:33:22;;;;;;;4.50;2.10;;;;;;;;;;6097512;23;20387;-77
2023/03/23 09:35:56;;;;;;;2.00;1.90;;;;;;;;;;6097696;23;20958;-77
2023/03/23 09:38:31;;;;;;;2.27;2.13;;;;;;;;;;6099232;23;20872;-77
2023/03/23 09:41:19;;;;;;;2.00;1.90;;;;;;;;;;6098011;23;20417;-78
2023/03/23 09:43:59;;;;;;;2.37;2.17;;;;;;;;;;6100304;23;20460;-76
2023/03/23 09:49:16;;;;;;;3.87;1.87;;;;;;;;;;6109161;23;20413;-77
2023/03/23 09:54:55;;;;;;;2.20;2.00;;;;;;;;;;6093654;23;20430;-77
2023/03/23 09:57:27;;;;;;;2.27;2.00;;;;;;;;;;6098346;23;20421;-78
2023/03/23 10:00:09;;;;;;;2.33;2.03;;;;;;;;;;6098299;23;20444;-77
2023/03/23 10:02:46;;;;;;;2.03;1.93;;;;;;;;;;6098564;23;20436;-76
2023/03/23 10:05:23;;;;;;;2.63;2.43;;;;;;;;;;6098094;23;20449;-77
2023/03/23 10:11:00;;;;;;;2.13;2.03;;;;;;;;;;6077205;23;20398;-78
2023/03/23 10:13:37;;;;;;;1.93;1.83;;;;;;;;;;6099929;23;20497;-76
2023/03/23 10:23:00;;;;;;;3.23;2.00;;;;;;;;;;6011090;23;20412;-76
2023/03/23 10:28:22;;;;;;;2.20;2.10;;;;;;;;;;6097185;23;20418;-77
2023/03/23 10:30:56;;;;;;;5.27;2.20;;;;;;;;;;6100376;23;20485;-78
2023/03/23 10:33:37;;;;;;;5.63;2.20;;;;;;;;;;6100991;23;20440;-77
2023/03/23 10:36:14;;;;;;;1.80;1.70;;;;;;;;;;6102554;23;20457;-76
2023/03/23 10:38:58;;;;;;;2.83;2.20;;;;;;;;;;6104439;23;20400;-78
2023/03/23 10:41:29;;;;;;;2.10;2.00;;;;;;;;;;6105574;23;20393;-76
2023/03/23 10:44:11;;;;;;;2.13;2.03;;;;;;;;;;6104955;23;20532;-76
2023/03/23 10:46:48;;;;;;;3.10;2.67;;;;;;;;;;6107948;23;20413;-76
2023/03/23 10:49:18;;;;;;;2.40;2.30;;;;;;;;;;6109733;23;20414;-76
2023/03/23 10:51:51;;;;;;;2.40;2.20;;;;;;;;;;6108445;23;20418;-77
2023/03/23 10:54:31;;;;;;;3.00;2.30;;;;;;;;;;6107536;23;20430;-77
2023/03/23 10:57:17;;;;;;;2.47;2.27;;;;;;;;;;6106884;23;20792;-76
2023/03/23 10:59:52;;;;;;;2.13;2.03;;;;;;;;;;6105644;23;20413;-76
2023/03/23 11:02:28;;;;;;;3.03;2.20;;;;;;;;;;6103796;23;20398;-77
2023/03/23 11:05:09;;;;;;;1.90;1.80;;;;;;;;;;6102248;23;20454;-76
2023/03/23 11:07:50;;;;;;;2.93;2.00;;;;;;;;;;6103545;23;20499;-76
2023/03/23 11:10:23;;;;;;;2.00;1.90;;;;;;;;;;6109381;23;20449;-77
2023/03/23 11:12:54;;;;;;;2.10;2.00;;;;;;;;;;6108933;23;20417;-77
2023/03/23 11:15:39;;;;;;;3.13;2.30;;;;;;;;;;6105395;23;20481;-77
2023/03/23 11:18:23;;;;;;;2.00;1.90;;;;;;;;;;6105999;23;20476;-77
2023/03/23 11:20:57;;;;;;;2.40;1.93;;;;;;;;;;6104717;23;20417;-76
2023/03/23 11:23:46;;;;;;;2.33;2.23;;;;;;;;;;6102211;23;20441;-77
2023/03/23 11:26:28;;;;;;;2.23;2.10;;;;;;;;;;6099442;23;20947;-78
2023/03/23 11:29:04;;;;;;;2.30;2.20;;;;;;;;;;6098822;23;20410;-77
2023/03/23 11:31:50;;;;;;;2.13;2.03;;;;;;;;;;6098189;23;20488;-77
2023/03/23 11:34:30;;;;;;;4.60;3.10;;;;;;;;;;6097689;23;20504;-76
2023/03/23 11:37:01;;;;;;;2.80;2.13;;;;;;;;;;6099090;23;20733;-76
2023/03/23 11:39:33;;;;;;;3.37;2.20;;;;;;;;;;6098807;23;20414;-77
2023/03/23 11:42:13;;;;;;;3.40;2.17;;;;;;;;;;6100566;23;20469;-78
2023/03/23 11:44:56;;;;;;;2.60;2.40;;;;;;;;;;6098955;23;20504;-77
2023/03/23 11:47:29;;;;;;;2.67;2.47;;;;;;;;;;6100420;23;20418;-79
2023/03/23 11:50:05;;;;;;;2.60;2.40;;;;;;;;;;6100564;23;20422;-75
2023/03/23 11:52:36;;;;;;;5.00;2.30;;;;;;;;;;6100401;23;20555;-77
2023/03/23 11:55:06;;;;;;;2.70;2.07;;;;;;;;;;6097768;23;20433;-76
2023/03/23 11:57:35;;;;;;;2.70;2.50;;;;;;;;;;6097505;23;20927;-78
2023/03/23 12:00:15;;;;;;;3.73;2.30;;;;;;;;;;6096954;23;20779;-77
2023/03/23 12:02:51;;;;;;;2.50;2.30;;;;;;;;;;6097172;23;20441;-77
2023/03/23 12:05:32;;;;;;;2.37;2.17;;;;;;;;;;6096505;23;20520;-79
2023/03/23 12:08:06;;;;;;;2.17;2.07;;;;;;;;;;6097107;23;20825;-77
2023/03/23 12:10:36;;;;;;;2.37;2.17;;;;;;;;;;6098430;23;20421;-77
2023/03/23 12:13:22;;;;;;;3.93;3.60;;;;;;;;;;6097076;23;20445;-77
2023/03/23 12:15:55;;;;;;;1.97;1.87;;;;;;;;;;6097269;23;20430;-77
2023/03/23 12:18:33;;;;;;;3.07;2.27;;;;;;;;;;6097304;23;20445;-78
2023/03/23 12:21:09;;;;;;;2.07;1.97;;;;;;;;;;6097574;23;20424;-78
2023/03/23 12:23:45;;;;;;;2.20;1.90;;;;;;;;;;6096236;23;20425;-77
2023/03/23 12:26:18;;;;;;;2.43;2.23;;;;;;;;;;6096877;23;20404;-78
2023/03/23 12:29:03;;;;;;;2.10;2.00;;;;;;;;;;6096156;23;20417;-77
2023/03/23 12:31:36;;;;;;;2.20;2.10;;;;;;;;;;6095304;23;20438;-79
2023/03/23 12:34:08;;;;;;;3.07;2.87;;;;;;;;;;6095436;23;20504;-77
2023/03/23 12:36:47;;;;;;;7.20;5.63;;;;;;;;;;6096609;23;20406;-77
2023/03/23 12:39:40;;;;;;;2.57;2.37;;;;;;;;;;6096526;23;20409;-78
2023/03/23 12:42:19;;;;;;;2.00;1.90;;;;;;;;;;6097435;23;20413;-78
2023/03/23 12:44:55;;;;;;;3.77;2.60;;;;;;;;;;6096879;23;20837;-78
2023/03/23 12:47:37;;;;;;;2.17;1.90;;;;;;;;;;6096404;23;20417;-77
2023/03/23 12:50:18;;;;;;;2.60;2.40;;;;;;;;;;6098156;23;20489;-77
2023/03/23 12:52:51;;;;;;;2.07;1.97;;;;;;;;;;6098848;23;20414;-78
2023/03/23 12:55:26;;;;;;;2.40;2.20;;;;;;;;;;6098096;23;20516;-77
2023/03/23 12:57:59;;;;;;;2.23;2.10;;;;;;;;;;6097443;23;20437;-77
2023/03/23 13:00:37;;;;;;;2.73;2.50;;;;;;;;;;6097841;23;20418;-77
2023/03/23 13:06:13;;;;;;;1.80;1.70;;;;;;;;;;6059921;23;20465;-78
2023/03/23 13:08:48;;;;;;;2.10;2.00;;;;;;;;;;6098726;23;20425;-76
2023/03/23 13:11:24;;;;;;;2.40;2.20;;;;;;;;;;6098133;23;20444;-77
2023/03/23 13:14:01;;;;;;;2.00;1.90;;;;;;;;;;6097236;23;20513;-78
2023/03/23 13:19:33;;;;;;;2.10;2.00;;;;;;;;;;6094674;23;20402;-77
2023/03/23 13:22:20;;;;;;;2.53;2.33;;;;;;;;;;6099217;23;20951;-76
2023/03/23 13:24:59;;;;;;;3.27;3.00;;;;;;;;;;6098321;23;20441;-77
2023/03/23 13:27:31;;;;;;;2.80;2.50;;;;;;;;;;6098335;23;20428;-77
2023/03/23 13:30:25;;;;;;;2.50;2.00;;;;;;;;;;6100043;23;20424;-76
2023/03/23 13:33:06;;;;;;;2.40;2.20;;;;;;;;;;6101622;23;20900;-75
2023/03/23 13:35:38;;;;;;;2.47;2.30;;;;;;;;;;6101370;23;20429;-77
2023/03/23 13:38:34;;;;;;;2.37;2.27;;;;;;;;;;6099174;23;20457;-77
2023/03/23 13:41:15;;;;;;;2.47;2.27;;;;;;;;;;6098865;23;20456;-75
2023/03/23 13:43:50;;;;;;;2.47;1.90;;;;;;;;;;6098997;23;20416;-78
2023/03/23 13:46:35;;;;;;;2.70;2.50;;;;;;;;;;6099821;23;20544;-76
2023/03/23 13:49:25;;;;;;;3.73;2.63;;;;;;;;;;6100462;23;20417;-77
2023/03/23 13:52:17;;;;;;;2.63;2.30;;;;;;;;;;6102425;23;20417;-77
2023/03/23 13:55:11;;;;;;;2.37;2.27;;;;;;;;;;6101752;23;20430;-77
2023/03/23 13:57:42;;;;;;;2.57;1.93;;;;;;;;;;6102706;23;20437;-77
2023/03/23 14:00:31;;;;;;;4.73;2.80;;;;;;;;;;6102599;23;20434;-76
2023/03/23 14:03:30;;;;;;;2.57;2.37;;;;;;;;;;6102064;23;20931;-78
2023/03/23 14:06:13;;;;;;;3.50;2.17;;;;;;;;;;6103347;23;20503;-77
2023/03/23 14:08:46;;;;;;;2.87;2.57;;;;;;;;;;6102349;23;20428;-77
2023/03/23 14:11:20;;;;;;;2.67;2.47;;;;;;;;;;6101435;23;20417;-76
2023/03/23 14:14:01;;;;;;;2.23;2.03;;;;;;;;;;6101399;23;21146;-77
2023/03/23 14:16:45;;;;;;;2.90;2.70;;;;;;;;;;6101164;23;20904;-77
2023/03/23 14:22:35;;;;;;;3.23;2.93;;;;;;;;;;5985943;23;20943;-77
2023/03/23 14:25:23;;;;;;;2.23;2.10;;;;;;;;;;6095900;23;20804;-76
2023/03/23 14:28:20;;;;;;;2.20;2.10;;;;;;;;;;6097415;23;20421;-77
2023/03/23 14:30:49;;;;;;;2.57;2.37;;;;;;;;;;6095425;23;20409;-77
2023/03/23 14:33:20;;;;;;;3.00;2.70;;;;;;;;;;6094658;23;20398;-76
2023/03/23 14:35:57;;;;;;;2.40;2.10;;;;;;;;;;6095200;23;20430;-77
2023/03/23 14:38:31;;;;;;;2.87;2.33;;;;;;;;;;6094846;23;20413;-77
2023/03/23 14:41:03;;;;;;;2.90;2.43;;;;;;;;;;6096059;23;20800;-78
2023/03/23 14:43:37;;;;;;;3.07;2.30;;;;;;;;;;6094228;23;20406;-76
2023/03/23 14:46:08;;;;;;;2.30;2.10;;;;;;;;;;6094883;23;20452;-77
2023/03/23 14:51:19;;;;;;;3.10;2.73;;;;;;;;;;6094019;23;20481;-76
2023/03/23 14:53:56;;;;;;;2.50;2.23;;;;;;;;;;6097575;23;20414;-77
2023/03/23 14:56:43;;;;;;;2.50;2.40;;;;;;;;;;6097358;23;20405;-77
2023/03/23 15:05:17;;;;;;;3.30;3.10;;;;;;;;;;6091930;23;20438;-76
2023/03/23 15:08:03;;;;;;;4.47;2.40;;;;;;;;;;6097731;23;20449;-76
2023/03/23 15:10:33;;;;;;;2.60;2.40;;;;;;;;;;6097500;23;20421;-77
2023/03/23 15:15:54;;;;;;;2.80;2.60;;;;;;;;;;6096405;23;20446;-77
2023/03/23 15:18:37;;;;;;;2.90;2.60;;;;;;;;;;6098380;23;20417;-75
2023/03/23 15:21:30;;;;;;;3.57;2.90;;;;;;;;;;6098718;23;20409;-76
2023/03/23 15:24:02;;;;;;;2.77;2.57;;;;;;;;;;6099291;23;20592;-76
2023/03/23 15:26:32;;;;;;;3.03;2.70;;;;;;;;;;6099955;23;20438;-76
2023/03/23 15:29:23;;;;;;;4.50;2.73;;;;;;;;;;6102115;23;20432;-77
2023/03/23 15:31:56;;;;;;;3.43;2.40;;;;;;;;;;6108396;23;20414;-77
2023/03/23 15:34:44;;;;;;;2.53;2.33;;;;;;;;;;6107060;23;20425;-77
2023/03/23 15:37:22;;;;;;;2.87;2.67;;;;;;;;;;6107031;23;20410;-78
2023/03/23 15:39:58;;;;;;;3.97;3.10;;;;;;;;;;6108167;23;20490;-77
2023/03/23 15:42:32;;;;;;;4.30;2.57;;;;;;;;;;6107860;23;20786;-76
2023/03/23 15:48:28;;;;;;;2.70;2.60;;;;;;;;;;6091167;23;20661;-77
2023/03/23 15:51:09;;;;;;;5.10;2.47;;;;;;;;;;6103745;23;20414;-78
2023/03/23 15:53:59;;;;;;;3.13;2.63;;;;;;;;;;6102223;23;20469;-77
2023/03/23 15:56:37;;;;;;;3.10;2.80;;;;;;;;;;6102295;23;20441;-78
2023/03/23 15:59:14;;;;;;;3.20;3.00;;;;;;;;;;6103926;23;20872;-76
2023/03/23 16:01:53;;;;;;;2.80;2.60;;;;;;;;;;6103431;23;20421;-76
2023/03/23 16:10:24;;;;;;;2.57;2.37;;;;;;;;;;6118809;23;20773;-78
2023/03/23 16:12:55;;;;;;;2.57;2.37;;;;;;;;;;6134287;23;20413;-79
2023/03/23 16:15:35;;;;;;;2.97;2.33;;;;;;;;;;6134835;23;20429;-76
2023/03/23 16:18:26;;;;;;;4.13;2.50;;;;;;;;;;6134899;23;20421;-77
2023/03/23 16:21:04;;;;;;;2.23;2.03;;;;;;;;;;6134964;23;20416;-77
2023/03/23 16:26:50;;;;;;;4.10;2.73;;;;;;;;;;6129094;23;20440;-76
2023/03/23 16:29:32;;;;;;;2.67;2.47;;;;;;;;;;6145173;23;20424;-76
2023/03/23 16:32:15;;;;;;;2.80;2.60;;;;;;;;;;6144500;23;20461;-76
2023/03/23 16:51:37;;;;;;;3.43;2.53;;;;;;;;;;6060688;23;20422;-77
2023/03/23 16:54:10;;;;;;;2.43;2.10;;;;;;;;;;6120010;23;20434;-76
2023/03/23 16:57:08;;;;;;;2.73;2.53;;;;;;;;;;6195450;23;20406;-78
2023/03/23 17:02:51;;;;;;;2.80;2.60;;;;;;;;;;6190131;23;20416;-77
2023/03/23 17:05:31;;;;;;;2.40;2.20;;;;;;;;;;6129524;23;21007;-79
2023/03/23 17:38:20;;;;;;;2.30;2.20;;;;;;;;;;6207990;23;20178;-76
2023/03/23 17:40:59;;;;;;;3.60;2.97;;;;;;;;;;6224934;23;20894;-77
2023/03/23 17:43:34;;;;;;;3.23;2.70;;;;;;;;;;6223678;23;20970;-76
2023/03/23 17:46:07;;;;;;;4.00;3.70;;;;;;;;;;6222961;23;20487;-76
2023/03/23 17:48:55;;;;;;;4.50;3.07;;;;;;;;;;6223646;23;20409;-77
2023/03/23 17:51:26;;;;;;;3.07;2.77;;;;;;;;;;6223452;23;20448;-77
2023/03/23 17:54:11;;;;;;;2.70;2.50;;;;;;;;;;6222641;23;20556;-77
2023/03/23 17:56:48;;;;;;;2.97;2.50;;;;;;;;;;6225858;23;20495;-77
2023/03/23 17:59:31;;;;;;;3.00;2.80;;;;;;;;;;6224498;23;20754;-76
2023/03/23 18:02:12;;;;;;;3.17;2.87;;;;;;;;;;6223487;23;20413;-75
2023/03/23 18:24:19;;;;;;;3.23;2.93;;;;;;;;;;6250741;22;20890;-78
2023/03/23 18:26:58;;;;;;;2.40;2.20;;;;;;;;;;6127490;23;20428;-78
2023/03/23 18:32:32;;;;;;;3.50;3.23;;;;;;;;;;6132204;23;20436;-77
2023/03/23 18:35:13;;;;;;;2.60;2.40;;;;;;;;;;6133526;23;20446;-77
2023/03/23 18:37:50;;;;;;;3.20;2.97;;;;;;;;;;6133187;23;20787;-77
2023/03/23 18:40:26;;;;;;;2.53;2.33;;;;;;;;;;6133899;23;20416;-79
2023/03/23 18:42:59;;;;;;;4.17;2.90;;;;;;;;;;6134055;23;20419;-78
2023/03/23 19:07:16;;;;;;;4.60;4.20;;;;;;;;;;5988266;24;20444;-77
2023/03/23 19:42:16;;;;;;;;;;;;;;;;;;;;;
2023/03/23 20:00:42;;;;;;;2.60;2.40;;;;;;;;;;5866451;24;20490;-76
2023/03/23 20:03:24;;;;;;;3.03;2.70;;;;;;;;;;6004629;23;20411;-76
2023/03/23 20:05:59;;;;;;;2.93;2.70;;;;;;;;;;6164156;23;20457;-77
2023/03/23 20:08:27;;;;;;;2.87;2.67;;;;;;;;;;6211063;23;20402;-77
2023/03/23 20:11:03;;;;;;;3.13;2.87;;;;;;;;;;6208051;23;21096;-79
2023/03/23 20:13:32;;;;;;;4.00;2.60;;;;;;;;;;6204416;23;20406;-79